Aviation Digital Data Service (ADDS)

Output produced by METARs form (2023 UTC 18 July 2018)
found at http://www.aviationweather.gov/adds/metars/
 
KDLH 181955Z 23007KT 10SM SCT047 26/14 A3006 RMK AO2 SLP178 T02610139